Time;durP1;ratioP1;P1;durP2;ratioP2;P2;SDS_P1;SDS_P2;PMS_P1;PMS_P2;Temp;Humidity;BMP_temperature;BMP_pressure;BME280_temperature;BME280_humidity;BME280_pressure;Samples;Min_cycle;Max_cycle;Signal;HPM_P1;HPM_P2
2023/12/03 00:02:01;;;;;;;6.00;4.73;;;;;;;;;;6266952;28;20224;-63
2023/12/03 00:05:03;;;;;;;5.23;4.03;;;;;;;;;;6282390;28;20208;-63
2023/12/03 00:08:04;;;;;;;3.93;3.50;;;;;;;;;;6276929;28;20269;-63
2023/12/03 00:11:05;;;;;;;3.97;3.57;;;;;;;;;;6276873;28;20221;-63
2023/12/03 00:14:07;;;;;;;4.47;3.23;;;;;;;;;;6284915;28;20189;-63
2023/12/03 00:17:08;;;;;;;4.90;3.53;;;;;;;;;;6309763;28;20238;-63
2023/12/03 00:20:10;;;;;;;4.97;3.43;;;;;;;;;;6281533;28;20201;-63
2023/12/03 00:23:11;;;;;;;4.83;3.93;;;;;;;;;;6315342;28;20191;-63
2023/12/03 00:26:12;;;;;;;3.33;2.97;;;;;;;;;;6291835;28;20191;-63
2023/12/03 00:29:13;;;;;;;4.73;3.43;;;;;;;;;;6313727;28;20188;-63
2023/12/03 00:32:14;;;;;;;4.07;3.43;;;;;;;;;;6301609;28;20758;-63
2023/12/03 00:35:15;;;;;;;4.50;3.20;;;;;;;;;;6269863;28;20314;-62
2023/12/03 00:38:16;;;;;;;4.17;3.50;;;;;;;;;;6269780;28;20196;-63
2023/12/03 00:41:17;;;;;;;2.87;2.57;;;;;;;;;;6277971;28;20279;-63
2023/12/03 00:44:18;;;;;;;3.33;2.87;;;;;;;;;;6277560;28;20344;-63
2023/12/03 00:47:19;;;;;;;2.90;2.43;;;;;;;;;;6282850;28;20192;-63
2023/12/03 00:50:20;;;;;;;2.67;2.23;;;;;;;;;;6302365;28;20206;-63
2023/12/03 00:53:21;;;;;;;3.33;3.03;;;;;;;;;;6281323;28;20250;-63
2023/12/03 00:56:22;;;;;;;4.13;3.00;;;;;;;;;;6287356;28;20223;-63
2023/12/03 00:59:23;;;;;;;3.17;2.50;;;;;;;;;;6278069;28;20196;-63
2023/12/03 01:02:24;;;;;;;2.57;2.33;;;;;;;;;;6285637;28;20192;-63
2023/12/03 01:05:25;;;;;;;2.60;2.07;;;;;;;;;;6278262;28;20283;-63
2023/12/03 01:08:26;;;;;;;2.80;2.20;;;;;;;;;;6289971;28;20194;-63
2023/12/03 01:11:27;;;;;;;2.90;2.37;;;3.50;99.90;;;;;;6301198;28;20215;-63
2023/12/03 01:14:28;;;;;;;3.47;2.43;;;0.00;94.50;;;;;;6252052;28;20193;-63
2023/12/03 01:17:28;;;;;;;1.57;1.47;;;0.00;96.60;;;;;;6256149;28;20260;-63
2023/12/03 01:20:29;;;;;;;4.03;2.07;;;0.00;91.50;;;;;;6259075;28;20255;-63
2023/12/03 01:23:30;;;;;;;1.90;1.80;;;0.00;93.40;;;;;;6311402;28;20184;-63
2023/12/03 01:26:30;;;;;;;2.10;1.73;;;0.00;95.10;;;;;;6264479;28;20189;-62
2023/12/03 01:29:31;;;;;;;2.77;2.23;;;;;;;;;;6287183;28;20187;-62
2023/12/03 01:32:33;;;;;;;2.00;1.73;;;;;;;;;;6282514;28;20192;-63
2023/12/03 01:35:34;;;;;;;2.20;1.67;;;;;;;;;;6311904;28;20206;-63
2023/12/03 01:38:35;;;;;;;2.03;1.80;;;;;;;;;;6290217;28;20197;-63
2023/12/03 01:41:36;;;;;;;1.93;1.60;;;;;;;;;;6276124;28;20258;-63
2023/12/03 01:44:37;;;;;;;2.30;1.80;;;;;;;;;;6304491;28;20187;-63
2023/12/03 01:47:38;;;;;;;1.93;1.80;;;;;;;;;;6301865;28;20198;-64
2023/12/03 01:50:40;;;;;;;2.63;1.87;;;-0.10;90.70;;;;;;6289307;28;20304;-63
2023/12/03 01:53:42;;;;;;;3.20;2.17;;;-0.40;89.20;;;;;;6281803;28;20185;-63
2023/12/03 01:56:43;;;;;;;2.13;1.77;;;-0.30;91.40;;;;;;6316411;28;20184;-63
2023/12/03 01:59:45;;;;;;;2.03;1.63;;;-0.30;92.30;;;;;;6254540;28;20193;-64
2023/12/03 02:02:46;;;;;;;2.00;1.47;;;-0.20;90.40;;;;;;6271974;28;20223;-63
2023/12/03 02:06:14;;;;;;;2.03;1.77;;;-0.20;92.20;;;;;;6273202;28;20192;-63
2023/12/03 02:09:16;;;;;;;1.70;1.60;;;-0.20;91.80;;;;;;6301763;28;20201;-63
2023/12/03 02:12:17;;;;;;;2.67;2.10;;;-0.20;89.70;;;;;;6281632;28;20308;-63
2023/12/03 02:15:18;;;;;;;3.23;2.57;;;-0.10;95.60;;;;;;6271717;28;20236;-64
2023/12/03 02:18:19;;;;;;;3.13;2.20;;;-0.10;95.80;;;;;;6276997;28;20202;-63
2023/12/03 02:21:19;;;;;;;3.77;2.50;;;-0.10;94.90;;;;;;6303499;28;20250;-63
2023/12/03 02:24:20;;;;;;;4.27;2.60;;;-0.10;93.40;;;;;;6288433;28;20192;-63
2023/12/03 02:27:21;;;;;;;3.00;2.20;;;-0.10;95.90;;;;;;6276194;28;20208;-64
2023/12/03 02:30:21;;;;;;;2.93;2.40;;;-0.10;96.30;;;;;;6321853;28;20222;-64
2023/12/03 02:33:22;;;;;;;3.00;2.70;;;-0.10;97.40;;;;;;6310592;28;20181;-63
2023/12/03 02:36:23;;;;;;;3.50;2.30;;;-0.20;94.10;;;;;;6316173;28;20206;-64
2023/12/03 02:39:23;;;;;;;3.50;2.50;;;-0.20;95.60;;;;;;6281666;28;20199;-63
2023/12/03 02:42:24;;;;;;;3.63;2.67;;;-0.20;97.80;;;;;;6278695;28;20294;-63
2023/12/03 02:45:25;;;;;;;2.97;2.67;;;-0.10;98.50;;;;;;6292307;28;20294;-63
2023/12/03 02:48:25;;;;;;;3.00;2.70;;;-0.10;98.50;;;;;;6265058;28;20196;-63
2023/12/03 02:51:26;;;;;;;4.77;3.00;;;-0.10;98.10;;;;;;6274112;28;20214;-63
2023/12/03 02:54:27;;;;;;;3.10;2.80;;;-0.10;97.80;;;;;;6270590;28;20278;-63
2023/12/03 02:57:27;;;;;;;2.87;2.53;;;-0.10;94.90;;;;;;6280414;28;20235;-63
2023/12/03 03:00:28;;;;;;;4.40;3.23;;;-0.10;97.60;;;;;;6257032;28;20206;-63
2023/12/03 03:03:29;;;;;;;3.93;2.60;;;-0.10;98.00;;;;;;6294945;28;20202;-63
2023/12/03 03:06:29;;;;;;;3.47;3.10;;;-0.20;93.30;;;;;;6273025;28;20283;-63
2023/12/03 03:09:30;;;;;;;3.47;2.90;;;-0.20;97.80;;;;;;6299959;28;20199;-63
2023/12/03 03:12:31;;;;;;;2.57;2.37;;;-0.20;97.00;;;;;;6262737;28;20262;-63
2023/12/03 03:15:31;;;;;;;2.57;2.23;;;-0.20;97.70;;;;;;6285035;28;20303;-63
2023/12/03 03:18:34;;;;;;;2.93;2.33;;;-0.20;96.00;;;;;;6281827;28;20184;-64
2023/12/03 03:21:39;;;;;;;3.23;2.53;;;-0.20;96.80;;;;;;6294580;28;20204;-63
2023/12/03 03:24:42;;;;;;;3.33;2.50;;;-0.20;98.00;;;;;;6300285;28;20207;-63
2023/12/03 03:27:43;;;;;;;2.67;2.43;;;-0.20;97.50;;;;;;6277702;28;20188;-64
2023/12/03 03:30:44;;;;;;;2.70;2.10;;;-0.20;97.60;;;;;;6271076;28;20282;-62
2023/12/03 03:33:44;;;;;;;2.80;2.30;;;-0.20;97.30;;;;;;6291495;28;20203;-63
2023/12/03 03:36:45;;;;;;;2.87;2.10;;;-0.30;95.50;;;;;;6276198;28;20215;-63
2023/12/03 03:39:46;;;;;;;3.67;2.40;;;-0.40;94.30;;;;;;6292413;28;20233;-63
2023/12/03 03:42:46;;;;;;;2.70;2.43;;;-0.30;97.30;;;;;;6274256;28;20243;-63
2023/12/03 03:45:47;;;;;;;2.73;2.20;;;-0.30;97.40;;;;;;6291452;28;20188;-63
2023/12/03 03:48:48;;;;;;;3.03;2.20;;;-0.40;95.30;;;;;;6301784;28;20203;-63
2023/12/03 03:51:49;;;;;;;2.27;2.07;;;-0.50;96.30;;;;;;6273526;28;20215;-64
2023/12/03 03:54:49;;;;;;;2.70;2.40;;;-0.50;97.50;;;;;;6287632;28;20189;-63
2023/12/03 03:57:50;;;;;;;3.13;2.57;;;-0.40;97.20;;;;;;6290760;28;20184;-63
2023/12/03 04:00:51;;;;;;;2.60;2.40;;;-0.60;96.20;;;;;;6289642;28;20185;-63
2023/12/03 04:03:52;;;;;;;3.43;2.67;;;-0.70;98.20;;;;;;6306473;28;20196;-63
2023/12/03 04:06:52;;;;;;;3.53;2.90;;;-0.60;99.00;;;;;;6304821;28;20183;-64
2023/12/03 04:09:53;;;;;;;3.77;2.70;;;-0.60;99.80;;;;;;6290646;28;20215;-63
2023/12/03 04:12:54;;;;;;;3.10;2.70;;;-0.70;99.00;;;;;;6294071;28;20196;-63
2023/12/03 04:15:56;;;;;;;2.57;2.13;;;-0.70;98.90;;;;;;6264064;28;20203;-63
2023/12/03 04:18:57;;;;;;;3.23;2.17;;;-0.90;96.30;;;;;;6290962;28;20265;-63
2023/12/03 04:21:58;;;;;;;3.23;2.83;;;-0.80;99.60;;;;;;6266729;28;20651;-63
2023/12/03 04:24:58;;;;;;;4.67;2.90;;;-0.80;99.90;;;;;;6266821;28;20187;-64
2023/12/03 04:27:59;;;;;;;2.77;2.47;;;-0.80;99.90;;;;;;6273489;28;20196;-63
2023/12/03 04:31:00;;;;;;;4.23;2.97;;;-0.80;99.50;;;;;;6284095;28;20219;-63
2023/12/03 04:34:01;;;;;;;4.20;3.03;;;-0.90;98.70;;;;;;6272357;28;20272;-63
2023/12/03 04:37:01;;;;;;;3.50;2.80;;;-0.90;99.30;;;;;;6263442;28;20216;-63
2023/12/03 04:40:03;;;;;;;3.30;2.93;;;-0.90;99.30;;;;;;6249365;28;20180;-63
2023/12/03 04:43:04;;;;;;;3.73;3.27;;;-0.90;99.50;;;;;;6268523;28;20245;-63
2023/12/03 04:46:05;;;;;;;3.83;2.80;;;-1.00;98.70;;;;;;6298933;28;21161;-63
2023/12/03 04:49:06;;;;;;;3.53;3.00;;;-1.00;97.90;;;;;;6259742;28;20188;-63
2023/12/03 04:52:07;;;;;;;3.23;2.80;;;-1.00;99.40;;;;;;6288651;28;20262;-63
2023/12/03 04:55:08;;;;;;;3.33;2.90;;;-1.10;98.20;;;;;;6290973;28;20188;-64
2023/12/03 04:58:09;;;;;;;3.57;2.97;;;-1.00;99.30;;;;;;6278441;28;20520;-64
2023/12/03 05:01:09;;;;;;;4.23;3.30;;;-1.10;98.80;;;;;;6256344;28;20188;-63
2023/12/03 05:04:10;;;;;;;3.90;3.33;;;-1.10;99.30;;;;;;6256405;28;20185;-63
2023/12/03 05:07:11;;;;;;;3.77;2.67;;;-1.10;99.90;;;;;;6285560;28;20188;-63
2023/12/03 05:10:11;;;;;;;2.67;2.43;;;-1.10;99.80;;;;;;6263050;28;20206;-63
2023/12/03 05:13:15;;;;;;;3.20;2.90;;;-1.10;98.80;;;;;;6272407;28;20272;-63
2023/12/03 05:16:15;;;;;;;4.30;3.30;;;-1.20;99.50;;;;;;6303481;28;20191;-63
2023/12/03 05:19:16;;;;;;;3.10;2.80;;;-1.30;99.40;;;;;;6277076;28;20217;-63
2023/12/03 05:22:17;;;;;;;3.80;2.40;;;-1.50;98.20;;;;;;6295805;28;20195;-63
2023/12/03 05:25:21;;;;;;;2.30;2.10;;;-1.60;98.00;;;;;;6269388;28;20196;-63
2023/12/03 05:28:22;;;;;;;3.53;3.17;;;-1.60;98.60;;;;;;6294615;28;20199;-63
2023/12/03 05:31:22;;;;;;;3.70;3.07;;;-1.50;99.90;;;;;;6263128;28;20302;-63
2023/12/03 05:34:23;;;;;;;3.97;3.10;;;-1.50;99.90;;;;;;6269158;28;20190;-62
2023/12/03 05:37:28;;;;;;;3.53;2.50;;;-1.50;99.80;;;;;;6269393;28;20179;-62
2023/12/03 05:40:29;;;;;;;3.87;3.17;;;-1.50;99.20;;;;;;6255154;28;20281;-62
2023/12/03 05:43:30;;;;;;;3.30;2.97;;;-1.50;99.00;;;;;;6279610;28;20238;-63
2023/12/03 05:46:30;;;;;;;3.53;3.03;;;-1.50;99.50;;;;;;6266320;28;20192;-62
2023/12/03 05:49:31;;;;;;;3.97;2.60;;;-1.50;98.90;;;;;;6298455;28;20294;-64
2023/12/03 05:52:32;;;;;;;4.30;2.97;;;-1.60;96.90;;;;;;6287358;28;20185;-62
2023/12/03 05:55:32;;;;;;;3.33;2.97;;;-1.70;96.90;;;;;;6293133;28;20246;-63
2023/12/03 05:58:33;;;;;;;4.67;3.23;;;-1.60;98.80;;;;;;6254531;28;20184;-63
2023/12/03 06:01:34;;;;;;;3.90;3.17;;;-1.60;98.20;;;;;;6270008;28;20185;-64
2023/12/03 06:04:34;;;;;;;3.70;3.00;;;-1.60;98.30;;;;;;6284835;28;20196;-63
2023/12/03 06:07:35;;;;;;;4.80;3.40;;;-1.60;99.40;;;;;;6284890;28;20214;-62
2023/12/03 06:10:36;;;;;;;3.40;2.87;;;-1.60;98.60;;;;;;6272660;28;20287;-62
2023/12/03 06:13:36;;;;;;;3.40;3.10;;;-1.70;97.60;;;;;;6277045;28;20204;-62
2023/12/03 06:16:37;;;;;;;4.60;3.13;;;-1.70;98.40;;;;;;6273870;28;20201;-62
2023/12/03 06:19:38;;;;;;;3.43;3.13;;;-1.70;97.90;;;;;;6288393;28;20284;-62
2023/12/03 06:22:39;;;;;;;3.20;2.80;;;-1.70;97.90;;;;;;6267455;28;20235;-62
2023/12/03 06:25:39;;;;;;;4.10;3.20;;;-1.80;97.50;;;;;;6263222;28;20183;-61
2023/12/03 06:28:40;;;;;;;4.37;3.27;;;-1.80;97.70;;;;;;6257273;28;20200;-65
2023/12/03 06:31:41;;;;;;;6.10;3.87;;;-1.90;97.60;;;;;;6273139;28;20299;-63
2023/12/03 06:34:42;;;;;;;5.07;3.77;;;;;;;;;;6267767;28;20184;-62
2023/12/03 06:37:43;;;;;;;3.97;3.57;;;;;;;;;;6294122;28;20177;-62
2023/12/03 06:40:44;;;;;;;5.07;3.47;;;;;;;;;;6276369;28;20201;-62
2023/12/03 06:43:45;;;;;;;4.23;3.57;;;;;;;;;;6301845;28;20245;-61
2023/12/03 06:46:46;;;;;;;4.63;3.53;;;;;;;;;;6311914;28;20198;-62
2023/12/03 06:49:48;;;;;;;4.53;3.80;;;;;;;;;;6270148;28;20191;-62
2023/12/03 06:52:49;;;;;;;3.40;3.10;;;;;;;;;;6312252;28;20203;-62
2023/12/03 06:55:50;;;;;;;4.20;3.20;;;;;;;;;;6288323;28;20193;-63
2023/12/03 06:58:51;;;;;;;3.50;3.10;;;;;;;;;;6282744;28;20221;-61
2023/12/03 07:01:52;;;;;;;4.10;2.70;;;;;;;;;;6286286;28;20244;-61
2023/12/03 07:04:53;;;;;;;4.80;3.77;;;;;;;;;;6276152;28;20201;-63
2023/12/03 07:07:54;;;;;;;4.17;3.67;;;;;;;;;;6287912;28;20226;-62
2023/12/03 07:10:55;;;;;;;4.07;3.13;;;;;;;;;;6281187;28;20219;-62
2023/12/03 07:13:56;;;;;;;3.77;3.23;;;;;;;;;;6320215;28;20199;-63
2023/12/03 07:16:57;;;;;;;5.53;3.77;;;;;;;;;;6292629;28;20262;-62
2023/12/03 07:19:58;;;;;;;5.60;4.17;;;;;;;;;;6291704;28;20193;-62
2023/12/03 07:22:59;;;;;;;4.63;3.67;;;;;;;;;;6283005;28;20188;-63
2023/12/03 07:26:00;;;;;;;5.67;4.03;;;;;;;;;;6291091;28;20204;-67
2023/12/03 07:29:01;;;;;;;4.03;3.63;;;;;;;;;;6289447;28;20200;-66
2023/12/03 07:32:03;;;;;;;4.83;4.00;;;;;;;;;;6291741;28;20263;-66
2023/12/03 07:35:04;;;;;;;5.90;4.13;;;;;;;;;;6297336;28;20254;-66
2023/12/03 07:38:05;;;;;;;4.60;3.63;;;;;;;;;;6292469;28;20203;-61
2023/12/03 07:41:10;;;;;;;5.17;3.80;;;;;;;;;;6287167;28;20202;-62
2023/12/03 07:44:11;;;;;;;5.27;3.97;;;;;;;;;;6300680;28;20250;-62
2023/12/03 07:47:13;;;;;;;5.23;4.37;;;;;;;;;;6289396;28;20201;-62
2023/12/03 07:50:14;;;;;;;4.97;3.90;;;;;;;;;;6292257;28;20210;-60
2023/12/03 07:53:15;;;;;;;4.63;3.40;;;;;;;;;;6288003;28;20189;-62
2023/12/03 07:56:16;;;;;;;5.00;3.90;;;;;;;;;;6319918;28;20186;-62
2023/12/03 07:59:17;;;;;;;3.30;2.97;;;;;;;;;;6296295;28;20208;-62
2023/12/03 08:02:18;;;;;;;4.63;3.73;;;;;;;;;;6286752;28;20197;-66
2023/12/03 08:05:19;;;;;;;4.50;3.77;;;;;;;;;;6285189;28;20206;-61
2023/12/03 08:08:20;;;;;;;6.07;3.97;;;;;;;;;;6308210;28;20193;-63
2023/12/03 08:11:21;;;;;;;5.90;4.40;;;;;;;;;;6267806;28;20231;-63
2023/12/03 08:14:22;;;;;;;6.20;4.67;;;;;;;;;;6300087;28;20183;-62
2023/12/03 08:17:23;;;;;;;6.43;4.40;;;;;;;;;;6280488;28;20198;-62
2023/12/03 08:20:24;;;;;;;7.17;4.73;;;;;;;;;;6309194;28;20190;-62
2023/12/03 08:23:26;;;;;;;7.77;5.20;;;;;;;;;;6282890;28;20204;-61
2023/12/03 08:26:27;;;;;;;7.05;6.32;;;;;;;;;;6302390;28;20754;-62
2023/12/03 08:29:28;;;;;;;7.37;5.40;;;;;;;;;;6293475;28;20198;-62
2023/12/03 08:32:29;;;;;;;6.27;5.20;;;;;;;;;;6293103;28;20200;-62
2023/12/03 08:35:31;;;;;;;5.30;4.80;;;;;;;;;;6284360;28;20187;-62
2023/12/03 08:38:32;;;;;;;6.50;5.13;;;;;;;;;;6288792;28;20234;-62
2023/12/03 08:41:33;;;;;;;8.83;6.13;;;;;;;;;;6284359;28;20188;-62
2023/12/03 08:44:34;;;;;;;6.50;5.30;;;;;;;;;;6276289;28;20194;-62
2023/12/03 08:47:35;;;;;;;7.73;5.23;;;;;;;;;;6299432;28;20238;-62
2023/12/03 08:50:37;;;;;;;7.53;5.17;;;;;;;;;;6279399;28;20218;-62
2023/12/03 08:53:38;;;;;;;6.77;5.30;;;;;;;;;;6296483;28;20223;-61
2023/12/03 08:56:39;;;;;;;6.13;5.10;;;;;;;;;;6280054;28;20187;-62
2023/12/03 08:59:40;;;;;;;7.47;5.77;;;;;;;;;;6279175;28;20200;-62
2023/12/03 09:02:41;;;;;;;5.33;4.63;;;;;;;;;;6283638;28;20191;-63
2023/12/03 09:05:43;;;;;;;9.97;6.17;;;;;;;;;;6272748;28;20188;-62
2023/12/03 09:08:44;;;;;;;8.77;7.17;;;;;;;;;;6276865;28;20192;-62
2023/12/03 09:11:45;;;;;;;8.73;6.70;;;;;;;;;;6326833;28;20207;-61
2023/12/03 09:14:47;;;;;;;9.90;7.17;;;;;;;;;;6316364;28;20193;-61
2023/12/03 09:17:48;;;;;;;8.30;6.70;;;;;;;;;;6290699;28;20212;-61
2023/12/03 09:20:49;;;;;;;7.73;6.10;;;;;;;;;;6277363;28;20192;-61
2023/12/03 09:23:50;;;;;;;7.47;6.50;;;;;;;;;;6308891;28;20186;-61
2023/12/03 09:26:51;;;;;;;8.00;6.00;;;;;;;;;;6293175;28;20193;-61
2023/12/03 09:29:52;;;;;;;6.70;5.53;;;;;;;;;;6284243;28;20209;-61
2023/12/03 09:32:53;;;;;;;7.00;5.47;;;;;;;;;;6306849;28;20191;-61
2023/12/03 09:35:56;;;;;;;7.77;5.30;;;;;;;;;;6304058;28;20210;-61
2023/12/03 09:38:57;;;;;;;8.43;5.30;;;;;;;;;;6298619;28;20221;-63
2023/12/03 09:42:02;;;;;;;6.27;5.57;;;;;;;;;;6284269;28;20235;-63
2023/12/03 09:45:04;;;;;;;5.83;4.90;;;;;;;;;;6301087;28;20192;-65
2023/12/03 09:48:08;;;;;;;5.93;4.60;;;;;;;;;;6280030;28;20223;-62
2023/12/03 09:51:13;;;;;;;6.83;4.67;;;;;;;;;;6308971;28;20220;-63
2023/12/03 09:54:14;;;;;;;6.60;4.43;;;;;;;;;;6300601;28;20272;-64
2023/12/03 09:57:15;;;;;;;5.03;4.00;;;;;;;;;;6297355;28;20271;-63
2023/12/03 10:00:16;;;;;;;5.70;4.30;;;;;;;;;;6304603;28;20194;-64
2023/12/03 10:03:17;;;;;;;5.10;4.03;;;;;;;;;;6281838;28;20205;-61
2023/12/03 10:06:23;;;;;;;5.43;4.33;;;;;;;;;;6286777;28;20282;-61
2023/12/03 10:09:24;;;;;;;4.63;3.57;;;;;;;;;;6302079;28;20187;-61
2023/12/03 10:12:45;;;;;;;4.97;3.87;;;;;;;;;;6296002;28;20221;-62
2023/12/03 10:15:46;;;;;;;3.73;3.30;;;;;;;;;;6301721;28;20234;-61
2023/12/03 10:18:49;;;;;;;3.27;2.63;;;;;;;;;;6304450;28;20252;-61
2023/12/03 10:21:51;;;;;;;4.97;3.37;;;;;;;;;;6314166;28;20192;-63
2023/12/03 10:24:52;;;;;;;3.30;2.67;;;;;;;;;;6315989;28;20221;-62
2023/12/03 10:27:54;;;;;;;3.20;2.90;;;;;;;;;;6315986;28;20189;-62
2023/12/03 10:30:55;;;;;;;4.17;3.47;;;;;;;;;;6303330;28;20205;-62
2023/12/03 10:33:56;;;;;;;3.47;2.80;;;;;;;;;;6308524;28;20188;-63
2023/12/03 10:37:00;;;;;;;5.37;3.53;;;;;;;;;;6299320;28;20189;-62
2023/12/03 10:40:02;;;;;;;3.30;3.00;;;;;;;;;;6280909;28;20196;-62
2023/12/03 10:43:03;;;;;;;2.97;2.60;;;;;;;;;;6320465;28;20227;-61
2023/12/03 10:46:05;;;;;;;3.50;2.63;;;;;;;;;;6295706;28;20192;-61
2023/12/03 10:49:06;;;;;;;3.10;2.73;;;;;;;;;;6288157;28;20199;-61
2023/12/03 10:52:07;;;;;;;3.30;2.70;;;;;;;;;;6282189;28;20287;-61
2023/12/03 10:55:09;;;;;;;3.17;2.60;;;;;;;;;;6286418;28;20200;-61
2023/12/03 10:58:11;;;;;;;3.33;2.70;;;;;;;;;;6302478;28;20189;-62
2023/12/03 11:01:12;;;;;;;3.03;2.57;;;;;;;;;;6319963;28;20219;-63
2023/12/03 11:04:36;;;;;;;2.97;2.40;;;;;;;;;;6298539;28;20545;-62
2023/12/03 11:07:37;;;;;;;2.53;2.07;;;;;;;;;;6260593;28;20209;-61
2023/12/03 11:10:39;;;;;;;3.10;2.37;;;;;;;;;;6337410;28;20211;-62
2023/12/03 11:13:42;;;;;;;2.60;2.13;;;;;;;;;;6293589;28;20185;-62
2023/12/03 11:16:59;;;;;;;2.60;2.00;;;;;;;;;;6324388;28;20213;-61
2023/12/03 11:20:08;;;;;;;2.60;2.00;;;;;;;;;;6325733;28;20200;-61
2023/12/03 11:23:15;;;;;;;2.70;2.43;;;;;;;;;;6306013;28;20199;-61
2023/12/03 11:26:18;;;;;;;2.30;2.10;;;;;;;;;;6334461;28;20196;-62
2023/12/03 11:29:19;;;;;;;4.27;2.47;;;;;;;;;;6269320;28;20193;-62
2023/12/03 11:32:21;;;;;;;2.27;2.03;;;;;;;;;;6291686;28;20238;-61
2023/12/03 11:35:25;;;;;;;3.17;2.13;;;;;;;;;;6286234;28;20196;-62
2023/12/03 11:38:26;;;;;;;3.07;2.27;;;;;;;;;;6311273;28;20303;-62
2023/12/03 11:41:31;;;;;;;2.20;2.00;;;;;;;;;;6304221;28;20196;-63
2023/12/03 11:44:33;;;;;;;2.17;1.90;;;;;;;;;;6313014;28;20192;-63
2023/12/03 11:47:35;;;;;;;1.77;1.67;;;;;;;;;;6284814;28;20237;-62
2023/12/03 11:50:41;;;;;;;2.33;2.13;;;;;;;;;;6301804;28;20208;-63
2023/12/03 11:53:42;;;;;;;1.80;1.70;;;;;;;;;;6298366;28;20185;-62
2023/12/03 11:56:43;;;;;;;2.77;2.27;;;24.00;50.00;;;;;;6304042;28;20215;-62
2023/12/03 11:59:45;;;;;;;3.50;2.40;;;0.80;78.70;;;;;;6256486;28;20205;-62
2023/12/03 12:02:45;;;;;;;2.83;2.27;;;0.80;80.20;;;;;;6281273;28;20203;-61
2023/12/03 12:05:48;;;;;;;4.17;2.43;;;1.00;77.00;;;;;;6267580;28;20197;-64
2023/12/03 12:08:48;;;;;;;2.57;2.27;;;1.00;73.90;;;;;;6306630;28;20217;-65
2023/12/03 12:11:50;;;;;;;2.40;2.20;;;1.00;77.30;;;;;;6273652;28;20216;-64
2023/12/03 12:14:51;;;;;;;2.33;2.03;;;1.00;77.70;;;;;;6300329;28;20191;-64
2023/12/03 12:17:52;;;;;;;3.00;2.47;;;1.10;78.10;;;;;;6264888;28;20196;-63
2023/12/03 12:21:05;;;;;;;2.30;2.10;;;1.10;77.30;;;;;;6313060;28;20218;-64
2023/12/03 12:24:06;;;;;;;2.63;1.97;;;1.10;73.50;;;;;;6304296;28;20213;-63
2023/12/03 12:27:07;;;;;;;2.37;2.17;;;1.20;73.60;;;;;;6297953;28;20195;-64
2023/12/03 12:30:08;;;;;;;2.33;2.13;;;1.20;73.40;;;;;;6257355;28;20226;-61
2023/12/03 12:33:10;;;;;;;3.37;2.47;;;1.20;68.90;;;;;;6284453;28;20559;-62
2023/12/03 12:36:11;;;;;;;1.97;1.77;;;1.40;72.70;;;;;;6276043;28;20195;-62
2023/12/03 12:39:26;;;;;;;2.50;1.70;;;1.40;69.80;;;;;;6269205;28;20187;-62
2023/12/03 12:42:27;;;;;;;3.17;2.63;;;;;;;;;;6289273;28;20229;-62
2023/12/03 12:45:28;;;;;;;2.93;2.30;;;;;;;;;;6274673;28;20206;-62
2023/12/03 12:48:30;;;;;;;2.60;2.40;;;;;;;;;;6302623;28;20184;-62
2023/12/03 12:51:31;;;;;;;2.77;2.57;;;;;;;;;;6314807;28;20219;-63
2023/12/03 12:54:51;;;;;;;2.60;2.23;;;1.40;76.70;;;;;;6309893;28;20638;-61
2023/12/03 12:57:52;;;;;;;2.83;2.53;;;1.60;70.50;;;;;;6280368;28;20284;-61
2023/12/03 13:00:53;;;;;;;3.20;2.30;;;;;;;;;;6271767;28;20188;-62
2023/12/03 13:03:55;;;;;;;2.80;2.60;;;;;;;;;;6299124;28;20196;-63
2023/12/03 13:06:56;;;;;;;3.80;3.03;;;;;;;;;;6288347;28;20207;-62
2023/12/03 13:09:58;;;;;;;2.90;2.50;;;;;;;;;;6288792;28;20208;-62
2023/12/03 13:13:00;;;;;;;3.17;2.60;;;;;;;;;;6296514;28;20226;-63
2023/12/03 13:16:02;;;;;;;2.50;2.30;;;;;;;;;;6277734;28;20181;-63
2023/12/03 13:19:03;;;;;;;3.30;2.80;;;;;;;;;;6275674;28;20274;-62
2023/12/03 13:22:04;;;;;;;2.67;2.40;;;;;;;;;;6282755;28;20228;-62
2023/12/03 13:25:08;;;;;;;2.50;2.20;;;;;;;;;;6299747;28;20222;-62
2023/12/03 13:28:10;;;;;;;4.53;3.47;;;;;;;;;;6306612;28;20202;-62
2023/12/03 13:31:11;;;;;;;5.83;4.00;;;;;;;;;;6306095;28;20209;-61
2023/12/03 13:34:12;;;;;;;4.80;4.13;;;;;;;;;;6302435;28;20192;-62
2023/12/03 13:37:13;;;;;;;4.60;3.93;;;;;;;;;;6278242;28;20268;-62
2023/12/03 13:40:14;;;;;;;5.13;3.90;;;;;;;;;;6283286;28;20215;-62
2023/12/03 13:43:15;;;;;;;4.87;4.30;;;;;;;;;;6288538;28;20276;-62
2023/12/03 13:46:16;;;;;;;4.27;3.87;;;;;;;;;;6275176;28;20197;-68
2023/12/03 13:49:18;;;;;;;4.70;4.30;;;;;;;;;;6275371;28;20199;-70
2023/12/03 13:52:20;;;;;;;6.27;4.30;;;;;;;;;;6272515;28;20253;-70
2023/12/03 13:55:21;;;;;;;5.87;4.60;;;;;;;;;;6304172;28;20181;-70
2023/12/03 13:58:22;;;;;;;6.47;4.77;;;;;;;;;;6288846;28;20188;-67
2023/12/03 14:01:23;;;;;;;5.60;4.93;;;;;;;;;;6282451;28;20210;-67
2023/12/03 14:04:24;;;;;;;5.97;5.07;;;;;;;;;;6277992;28;20222;-62
2023/12/03 14:07:25;;;;;;;6.03;4.97;;;;;;;;;;6287749;28;20291;-63
2023/12/03 14:10:29;;;;;;;6.70;5.20;;;;;;;;;;6284315;28;20216;-63
2023/12/03 14:13:30;;;;;;;9.03;6.57;;;;;;;;;;6286666;28;20666;-63
2023/12/03 14:16:32;;;;;;;6.07;5.47;;;;;;;;;;6277207;28;20291;-70
2023/12/03 14:19:33;;;;;;;6.37;5.20;;;;;;;;;;6297303;28;20248;-68
2023/12/03 14:22:36;;;;;;;6.40;5.00;;;;;;;;;;6304341;28;20200;-70
2023/12/03 14:25:37;;;;;;;7.40;4.93;;;;;;;;;;6319284;28;20185;-67
2023/12/03 14:28:39;;;;;;;7.07;4.87;;;;;;;;;;6275373;28;20223;-68
2023/12/03 14:31:44;;;;;;;5.33;4.77;;;;;;;;;;6308128;28;20213;-67
2023/12/03 14:34:45;;;;;;;8.37;5.50;;;;;;;;;;6311771;28;20192;-66
2023/12/03 14:37:46;;;;;;;6.27;5.20;;;;;;;;;;6305414;28;20189;-64
2023/12/03 14:40:47;;;;;;;10.57;7.13;;;;;;;;;;6288391;28;20193;-69
2023/12/03 14:43:49;;;;;;;7.47;5.70;;;;;;;;;;6276698;28;20228;-69
2023/12/03 14:46:52;;;;;;;7.97;5.33;;;;;;;;;;6273291;28;20207;-62
2023/12/03 14:49:53;;;;;;;6.93;5.60;;;;;;;;;;6322755;28;20203;-62
2023/12/03 14:52:54;;;;;;;6.33;5.40;;;;;;;;;;6277594;28;20203;-62
2023/12/03 14:55:55;;;;;;;6.20;5.57;;;;;;;;;;6282832;28;20199;-61
2023/12/03 14:58:57;;;;;;;7.53;6.10;;;;;;;;;;6307066;28;20188;-67
2023/12/03 15:01:59;;;;;;;6.60;5.70;;;;;;;;;;6303427;28;20223;-68
2023/12/03 15:05:03;;;;;;;6.77;5.30;;;;;;;;;;6284138;28;20195;-71
2023/12/03 15:08:05;;;;;;;5.70;5.10;;;;;;;;;;6287821;28;20190;-68
2023/12/03 15:11:06;;;;;;;7.70;5.47;;;;;;;;;;6314590;28;20208;-67
2023/12/03 15:14:07;;;;;;;6.83;5.13;;;;;;;;;;6305909;28;20184;-63
2023/12/03 15:17:08;;;;;;;5.73;5.03;;;;;;;;;;6306451;28;20208;-63
2023/12/03 15:20:10;;;;;;;8.47;5.90;;;;;;;;;;6271508;28;20197;-63
2023/12/03 15:23:11;;;;;;;8.50;6.40;;;;;;;;;;6306990;28;20188;-63
2023/12/03 15:26:13;;;;;;;5.57;5.03;;;;;;;;;;6317762;28;20194;-62
2023/12/03 15:29:14;;;;;;;6.23;5.60;;;;;;;;;;6282681;28;20193;-63
2023/12/03 15:32:16;;;;;;;8.13;6.63;;;;;;;;;;6270104;28;20212;-62
2023/12/03 15:35:17;;;;;;;6.77;5.57;;;;;;;;;;6318817;28;20189;-63
2023/12/03 15:38:18;;;;;;;7.63;5.93;;;1.70;73.70;;;;;;6288450;28;20195;-67
2023/12/03 15:41:19;;;;;;;7.73;5.87;;;0.20;92.50;;;;;;6305664;28;20200;-62
2023/12/03 15:44:19;;;;;;;8.03;6.50;;;0.20;92.10;;;;;;6271604;28;20227;-62
2023/12/03 15:47:20;;;;;;;6.67;5.40;;;;;;;;;;6278738;28;20203;-62
2023/12/03 15:50:23;;;;;;;8.30;6.67;;;;;;;;;;6276810;28;20216;-63
2023/12/03 15:53:26;;;;;;;10.47;6.77;;;;;;;;;;6300252;28;20193;-61
2023/12/03 15:56:27;;;;;;;7.60;6.10;;;;;;;;;;6288809;28;20216;-63
2023/12/03 15:59:28;;;;;;;8.07;6.20;;;;;;;;;;6299536;28;20183;-62
2023/12/03 16:02:29;;;;;;;7.93;6.70;;;;;;;;;;6280334;28;20196;-63
2023/12/03 16:05:30;;;;;;;8.37;6.67;;;;;;;;;;6274528;28;20221;-62
2023/12/03 16:08:31;;;;;;;8.73;6.53;;;;;;;;;;6276239;28;20192;-62
2023/12/03 16:11:32;;;;;;;8.57;6.73;;;;;;;;;;6274348;28;20272;-62
2023/12/03 16:14:33;;;;;;;11.20;7.53;;;;;;;;;;6280816;28;20184;-62
2023/12/03 16:17:34;;;;;;;12.20;7.47;;;;;;;;;;6279898;28;20180;-62
2023/12/03 16:20:35;;;;;;;8.87;7.13;;;;;;;;;;6285607;28;20205;-62
2023/12/03 16:23:36;;;;;;;8.90;7.03;;;;;;;;;;6278168;28;20188;-62
2023/12/03 16:26:37;;;;;;;7.73;6.70;;;;;;;;;;6276145;28;20193;-62
2023/12/03 16:29:38;;;;;;;7.90;6.03;;;;;;;;;;6305177;28;20192;-61
2023/12/03 16:32:39;;;;;;;9.40;6.93;;;;;;;;;;6283902;28;20234;-62
2023/12/03 16:35:40;;;;;;;9.07;6.13;;;;;;;;;;6283418;28;20243;-62
2023/12/03 16:38:44;;;;;;;9.73;7.10;;;;;;;;;;6278754;28;20272;-62
2023/12/03 16:41:45;;;;;;;9.43;7.43;;;;;;;;;;6315843;28;20232;-63
2023/12/03 16:44:48;;;;;;;8.93;7.23;;;;;;;;;;6289239;28;20200;-63
2023/12/03 16:47:49;;;;;;;9.43;7.37;;;;;;;;;;6299379;28;20202;-63
2023/12/03 16:50:50;;;;;;;8.93;7.27;;;;;;;;;;6280242;28;20333;-63
2023/12/03 16:53:52;;;;;;;12.37;9.40;;;;;;;;;;6302583;28;20192;-63
2023/12/03 16:56:53;;;;;;;10.30;7.47;;;;;;;;;;6276614;28;20188;-62
2023/12/03 16:59:54;;;;;;;10.30;7.83;;;;;;;;;;6275773;28;20206;-63
2023/12/03 17:02:55;;;;;;;9.53;8.03;;;;;;;;;;6278743;28;20197;-63
2023/12/03 17:05:56;;;;;;;12.37;8.97;;;;;;;;;;6272459;28;20203;-64
2023/12/03 17:08:57;;;;;;;11.37;9.60;;;0.10;92.90;;;;;;6279842;28;20198;-64
2023/12/03 17:12:00;;;;;;;14.43;10.20;;;;;;;;;;6282709;28;20203;-63
2023/12/03 17:15:01;;;;;;;14.90;9.77;;;;;;;;;;6309932;28;20254;-63